createdAt,value
2019-05-07T00:01:33.957Z,54.50
2019-05-07T00:03:07.802Z,54.40
2019-05-07T00:04:43.325Z,54.40
2019-05-07T00:06:18.819Z,54.50
2019-05-07T00:07:54.582Z,54.60
2019-05-07T00:09:32.155Z,54.60
2019-05-07T00:11:07.300Z,54.50
2019-05-07T00:12:43.171Z,54.60
2019-05-07T00:14:18.803Z,54.60
2019-05-07T00:15:54.630Z,57.30
2019-05-07T00:17:32.181Z,54.80
2019-05-07T00:19:07.419Z,55.70
2019-05-07T00:20:42.925Z,54.80
2019-05-07T00:22:18.479Z,54.80
2019-05-07T00:23:54.726Z,55.00
2019-05-07T00:25:32.681Z,55.10
2019-05-07T00:27:07.760Z,55.10
2019-05-07T00:28:43.495Z,55.10
2019-05-07T00:30:19.036Z,55.20
2019-05-07T00:31:54.850Z,58.70
2019-05-07T00:33:32.314Z,55.30
2019-05-07T00:35:10.065Z,55.10
2019-05-07T00:36:45.345Z,55.10
2019-05-07T00:38:23.893Z,55.20
2019-05-07T00:40:02.740Z,55.30
2019-05-07T00:41:46.117Z,55.20
2019-05-07T00:43:23.288Z,55.30
2019-05-07T00:45:19.647Z,55.70
2019-05-07T00:46:49.895Z,55.00
2019-05-07T00:48:25.429Z,55.20
2019-05-07T00:50:03.303Z,55.20
2019-05-07T00:51:38.969Z,54.80
2019-05-07T00:53:14.483Z,55.20
2019-05-07T00:54:50.319Z,55.10
2019-05-07T00:56:26.168Z,55.20
2019-05-07T00:58:02.395Z,55.20
2019-05-07T00:59:38.210Z,55.20
2019-05-07T01:01:13.725Z,55.20
2019-05-07T01:02:49.462Z,55.20
2019-05-07T01:04:24.990Z,55.20
2019-05-07T01:06:02.092Z,55.30
2019-05-07T01:07:37.690Z,55.20
2019-05-07T01:09:13.209Z,55.30
2019-05-07T01:10:48.725Z,55.40
2019-05-07T01:12:24.227Z,55.60
2019-05-07T01:13:59.749Z,55.90
2019-05-07T01:15:35.268Z,55.50
2019-05-07T01:17:12.950Z,55.80
2019-05-07T01:18:47.970Z,55.80
2019-05-07T01:20:23.482Z,55.40
2019-05-07T01:21:58.986Z,55.80
2019-05-07T01:23:34.502Z,55.90
2019-05-07T01:25:10.139Z,55.80
2019-05-07T01:26:45.655Z,55.70
2019-05-07T01:28:22.260Z,55.70
2019-05-07T01:29:58.065Z,55.80
2019-05-07T01:31:36.996Z,55.80
2019-05-07T01:33:26.037Z,55.70
2019-05-07T01:35:05.838Z,55.70
2019-05-07T01:36:42.696Z,55.20
2019-05-07T01:38:19.415Z,55.70
2019-05-07T01:39:54.919Z,55.70
2019-05-07T01:41:32.551Z,55.70
2019-05-07T01:44:43.700Z,55.40
2019-05-07T01:46:19.207Z,56.40
2019-05-07T01:47:54.720Z,56.10
2019-05-07T01:49:32.760Z,56.00
2019-05-07T01:51:07.447Z,56.10
2019-05-07T01:52:42.950Z,57.20
2019-05-07T01:54:18.451Z,56.00
2019-05-07T01:55:53.962Z,56.10
2019-05-07T01:57:29.475Z,56.00
2019-05-07T01:59:05.060Z,56.10
2019-05-07T02:00:42.417Z,56.10
2019-05-07T02:02:19.444Z,55.60
2019-05-07T02:03:56.585Z,55.80
2019-05-07T02:05:39.585Z,56.20
2019-05-07T02:07:19.647Z,56.20
2019-05-07T02:08:56.802Z,56.80
2019-05-07T02:10:52.305Z,56.30
2019-05-07T02:12:32.552Z,56.30
2019-05-07T02:14:08.387Z,56.30
2019-05-07T02:15:57.239Z,56.00
2019-05-07T02:17:22.804Z,56.40
2019-05-07T02:18:58.467Z,56.00
2019-05-07T02:20:33.971Z,56.30
2019-05-07T02:22:09.486Z,56.30
2019-05-07T02:23:44.990Z,56.40
2019-05-07T02:25:22.127Z,56.40
2019-05-07T02:26:57.881Z,56.30
2019-05-07T02:28:33.387Z,56.40
2019-05-07T02:30:09.304Z,56.30
2019-05-07T02:31:44.827Z,56.20
2019-05-07T02:33:22.890Z,56.20
2019-05-07T02:34:57.810Z,56.20
2019-05-07T02:36:34.318Z,56.10
2019-05-07T02:38:13.719Z,56.10
2019-05-07T02:39:53.101Z,56.20
2019-05-07T02:41:33.076Z,56.20
2019-05-07T02:43:08.853Z,56.30
2019-05-07T02:45:04.176Z,56.50
2019-05-07T02:46:43.798Z,56.50
2019-05-07T02:48:23.666Z,56.30
2019-05-07T02:50:02.827Z,55.80
2019-05-07T02:51:38.650Z,56.40
2019-05-07T02:53:33.722Z,56.30
2019-05-07T02:55:13.321Z,56.20
2019-05-07T02:56:48.395Z,56.20
2019-05-07T02:58:24.987Z,56.20
2019-05-07T03:00:04.041Z,56.20
2019-05-07T03:01:39.258Z,56.30
2019-05-07T03:03:14.854Z,56.30
2019-05-07T03:04:53.098Z,56.20
2019-05-07T03:06:27.609Z,56.20
2019-05-07T03:08:03.680Z,56.30
2019-05-07T03:09:39.242Z,56.40
2019-05-07T03:11:15.372Z,56.40
2019-05-07T03:12:53.674Z,56.50
2019-05-07T03:14:28.110Z,56.40
2019-05-07T03:16:04.003Z,56.40
2019-05-07T03:17:42.632Z,56.40
2019-05-07T03:19:17.268Z,56.40
2019-05-07T03:20:54.472Z,56.40
2019-05-07T03:22:29.986Z,56.40
2019-05-07T03:24:19.168Z,56.40
2019-05-07T03:26:13.678Z,56.50
2019-05-07T03:27:48.908Z,56.50
2019-05-07T03:29:25.755Z,56.60
2019-05-07T03:31:07.047Z,56.80
2019-05-07T03:32:56.105Z,56.80
2019-05-07T03:34:37.024Z,56.70
2019-05-07T03:36:16.347Z,56.60
2019-05-07T03:37:48.263Z,56.70
2019-05-07T03:39:24.841Z,56.80
2019-05-07T03:41:03.409Z,56.90
2019-05-07T03:42:38.527Z,56.80
2019-05-07T03:44:16.184Z,56.90
2019-05-07T03:45:56.989Z,56.80
2019-05-07T03:47:36.534Z,56.80
2019-05-07T03:49:27.821Z,56.80
2019-05-07T03:51:03.883Z,57.00
2019-05-07T03:52:42.612Z,57.00
2019-05-07T03:54:16.754Z,57.10
2019-05-07T03:55:53.803Z,57.10
2019-05-07T03:57:33.014Z,57.20
2019-05-07T03:59:07.212Z,57.10
2019-05-07T04:00:44.335Z,57.10
2019-05-07T04:02:23.406Z,57.10
2019-05-07T04:03:57.334Z,56.80
2019-05-07T04:05:34.140Z,57.10
2019-05-07T04:07:12.948Z,56.80
2019-05-07T04:08:47.125Z,56.80
2019-05-07T04:10:23.359Z,56.80
2019-05-07T04:11:59.026Z,56.70
2019-05-07T04:13:34.543Z,56.70
2019-05-07T04:15:10.044Z,56.60
2019-05-07T04:16:46.272Z,56.60
2019-05-07T04:18:23.649Z,56.60
2019-05-07T04:19:59.307Z,56.60
2019-05-07T04:21:34.833Z,56.50
2019-05-07T04:23:13.465Z,56.50
2019-05-07T04:24:58.697Z,56.30
2019-05-07T04:26:38.261Z,56.50
2019-05-07T04:28:20.031Z,56.40
2019-05-07T04:29:55.360Z,56.40
2019-05-07T04:31:34.253Z,56.30
2019-05-07T04:33:13.136Z,56.30
2019-05-07T04:35:05.436Z,56.20
2019-05-07T04:36:43.601Z,56.10
2019-05-07T04:38:19.508Z,55.50
2019-05-07T04:39:55.028Z,56.00
2019-05-07T04:41:32.982Z,56.00
2019-05-07T04:43:07.734Z,56.00
2019-05-07T04:44:43.839Z,55.90
2019-05-07T04:46:19.561Z,55.90
2019-05-07T04:47:55.076Z,56.00
2019-05-07T04:49:33.098Z,56.00
2019-05-07T04:51:12.441Z,55.90
2019-05-07T04:52:46.943Z,55.80
2019-05-07T04:54:23.721Z,55.70
2019-05-07T04:56:03.060Z,55.70
2019-05-07T04:57:37.590Z,55.60
2019-05-07T04:59:13.383Z,55.60
2019-05-07T05:00:48.907Z,55.50
2019-05-07T05:02:27.371Z,55.60
2019-05-07T05:04:21.123Z,55.50
2019-05-07T05:05:40.106Z,55.00
2019-05-07T05:07:15.629Z,55.50
2019-05-07T05:08:55.383Z,55.50
2019-05-07T05:10:28.350Z,55.60
2019-05-07T05:12:03.869Z,55.60
2019-05-07T05:13:39.718Z,55.60
2019-05-07T05:15:15.678Z,56.00
2019-05-07T05:16:53.192Z,55.70
2019-05-07T05:18:28.697Z,55.60
2019-05-07T05:20:08.369Z,55.60
2019-05-07T05:21:45.815Z,55.60
2019-05-07T05:23:22.765Z,55.60
2019-05-07T05:25:09.039Z,56.20
2019-05-07T05:26:44.561Z,55.60
2019-05-07T05:28:21.841Z,55.70
2019-05-07T05:29:57.506Z,55.80
2019-05-07T05:31:33.274Z,55.80
2019-05-07T05:33:08.816Z,56.00
2019-05-07T05:34:44.330Z,56.10
2019-05-07T05:36:22.042Z,56.10
2019-05-07T05:38:03.050Z,56.20
2019-05-07T05:39:38.628Z,56.20
2019-05-07T05:41:14.419Z,56.10
2019-05-07T05:42:49.717Z,55.90
2019-05-07T05:44:33.033Z,55.90
2019-05-07T05:46:17.117Z,56.00
2019-05-07T05:48:04.075Z,55.90
2019-05-07T05:49:32.061Z,55.90
2019-05-07T05:51:23.896Z,55.80
2019-05-07T05:53:18.888Z,55.70
2019-05-07T05:54:56.092Z,55.70
2019-05-07T05:56:48.505Z,55.60
2019-05-07T05:58:43.094Z,55.60
2019-05-07T06:00:32.898Z,55.50
2019-05-07T06:02:22.789Z,55.50
2019-05-07T06:04:02.859Z,55.50
2019-05-07T06:05:41.606Z,55.50
2019-05-07T06:07:25.641Z,55.50
2019-05-07T06:09:21.908Z,55.70
2019-05-07T06:10:59.245Z,55.40
2019-05-07T06:12:42.917Z,55.40
2019-05-07T06:14:18.285Z,55.40
2019-05-07T06:16:03.066Z,55.50
2019-05-07T06:17:45.930Z,55.60
2019-05-07T06:19:23.090Z,55.70
2019-05-07T06:21:00.262Z,55.80
2019-05-07T06:22:53.630Z,56.10
2019-05-07T06:24:31.789Z,56.10
2019-05-07T06:26:07.784Z,56.20
2019-05-07T06:27:43.563Z,56.20
2019-05-07T06:29:20.200Z,56.10
2019-05-07T06:30:56.317Z,56.00
2019-05-07T06:32:32.068Z,55.80
2019-05-07T06:34:08.061Z,55.70
2019-05-07T06:35:43.593Z,55.40
2019-05-07T06:37:19.115Z,55.30
2019-05-07T06:38:56.269Z,55.40
2019-05-07T06:40:36.114Z,55.30
2019-05-07T06:42:29.520Z,55.00
2019-05-07T06:44:06.763Z,54.60
2019-05-07T06:45:42.949Z,54.30
2019-05-07T06:47:18.494Z,54.00
2019-05-07T06:48:54.320Z,53.60
2019-05-07T06:50:32.719Z,53.10
2019-05-07T06:52:07.933Z,53.40
2019-05-07T06:53:43.457Z,52.60
2019-05-07T06:55:18.968Z,52.50
2019-05-07T06:56:55.568Z,52.50
2019-05-07T06:58:35.762Z,52.60
2019-05-07T07:00:23.738Z,52.50
2019-05-07T07:02:05.790Z,53.10
2019-05-07T07:03:43.532Z,52.40
2019-05-07T07:05:33.932Z,52.20
2019-05-07T07:07:24.037Z,52.30
2019-05-07T07:08:52.530Z,52.00
2019-05-07T07:10:45.715Z,51.50
2019-05-07T07:12:28.887Z,51.30
2019-05-07T07:14:04.434Z,51.00
2019-05-07T07:15:42.600Z,50.60
2019-05-07T07:17:17.449Z,50.10
2019-05-07T07:18:55.691Z,50.10
2019-05-07T07:20:32.621Z,50.20
2019-05-07T07:22:08.426Z,50.30
2019-05-07T07:23:43.939Z,50.30
2019-05-07T07:25:19.647Z,50.10
2019-05-07T07:26:55.178Z,50.10
2019-05-07T07:28:32.639Z,49.80
2019-05-07T07:30:25.755Z,49.80
2019-05-07T07:32:02.935Z,49.50
2019-05-07T07:33:46.036Z,49.40
2019-05-07T07:35:22.549Z,49.50
2019-05-07T07:37:12.905Z,49.60
2019-05-07T07:38:46.363Z,50.00
2019-05-07T07:40:24.390Z,49.60
2019-05-07T07:42:03.034Z,49.10
2019-05-07T07:43:38.610Z,48.50
2019-05-07T07:45:17.207Z,48.20
2019-05-07T07:46:54.373Z,48.10
2019-05-07T07:48:32.758Z,47.90
2019-05-07T07:50:08.688Z,47.40
2019-05-07T07:51:45.904Z,46.90
2019-05-07T07:53:22.757Z,46.50
2019-05-07T07:54:58.426Z,46.90
2019-05-07T07:56:49.094Z,46.40
2019-05-07T07:58:23.599Z,46.40
2019-05-07T08:00:02.573Z,46.40
2019-05-07T08:01:42.151Z,46.80
2019-05-07T08:03:17.838Z,46.60
2019-05-07T08:04:53.358Z,47.10
2019-05-07T08:06:29.324Z,47.50
2019-05-07T08:08:05.033Z,48.00
2019-05-07T08:09:42.584Z,48.30
2019-05-07T08:11:19.405Z,48.30
2019-05-07T08:12:54.918Z,49.00
2019-05-07T08:14:32.555Z,49.10
2019-05-07T08:16:08.144Z,49.10
2019-05-07T08:17:43.681Z,49.30
2019-05-07T08:19:22.197Z,49.70
2019-05-07T08:20:56.480Z,49.90
2019-05-07T08:22:32.974Z,50.20
2019-05-07T08:24:08.671Z,50.50
2019-05-07T08:25:52.956Z,50.60
2019-05-07T08:27:28.838Z,50.70
2019-05-07T08:29:04.362Z,51.30
2019-05-07T08:30:42.033Z,51.90
2019-05-07T08:32:28.018Z,52.40
2019-05-07T08:34:05.194Z,53.00
2019-05-07T08:35:42.355Z,53.20
2019-05-07T08:37:18.967Z,53.20
2019-05-07T08:38:55.649Z,53.40
2019-05-07T08:40:32.562Z,53.90
2019-05-07T08:42:08.281Z,53.60
2019-05-07T08:43:44.149Z,53.00
2019-05-07T08:45:37.217Z,52.40
2019-05-07T08:47:12.962Z,52.10
2019-05-07T08:48:50.432Z,51.50
2019-05-07T08:50:25.959Z,51.40
2019-05-07T08:52:03.550Z,51.30
2019-05-07T08:53:39.395Z,50.60
2019-05-07T08:55:15.099Z,49.70
2019-05-07T08:56:52.672Z,49.00
2019-05-07T08:58:27.864Z,48.80
2019-05-07T09:00:05.078Z,46.80
2019-05-07T09:01:43.315Z,46.50
2019-05-07T09:03:22.970Z,46.10
2019-05-07T09:04:58.042Z,45.30
2019-05-07T09:06:33.763Z,45.60
2019-05-07T09:08:09.283Z,44.90
2019-05-07T09:09:44.903Z,44.90
2019-05-07T09:11:22.934Z,44.50
2019-05-07T09:12:57.658Z,44.70
2019-05-07T09:14:33.290Z,44.40
2019-05-07T09:16:08.799Z,44.30
2019-05-07T09:17:44.348Z,44.40
2019-05-07T09:19:21.708Z,44.70
2019-05-07T09:20:57.176Z,45.10
2019-05-07T09:22:32.701Z,44.60
2019-05-07T09:24:12.154Z,44.50
2019-05-07T09:25:48.805Z,44.70
2019-05-07T09:27:29.327Z,44.70
2019-05-07T09:29:04.874Z,45.00
2019-05-07T09:30:57.314Z,45.20
2019-05-07T09:32:46.865Z,45.30
2019-05-07T09:34:24.392Z,45.40
2019-05-07T09:36:02.084Z,45.40
2019-05-07T09:37:37.151Z,46.40
2019-05-07T09:39:12.866Z,46.00
2019-05-07T09:40:48.394Z,46.60
2019-05-07T09:42:23.917Z,47.00
2019-05-07T09:43:59.827Z,47.10
2019-05-07T09:45:35.352Z,47.30
2019-05-07T09:47:12.895Z,47.30
2019-05-07T09:48:48.617Z,47.10
2019-05-07T09:50:24.155Z,47.00
2019-05-07T09:52:02.171Z,46.90
2019-05-07T09:53:36.928Z,46.80
2019-05-07T09:55:17.350Z,46.90
2019-05-07T09:56:52.595Z,46.70
2019-05-07T09:58:36.713Z,46.60
2019-05-07T10:00:12.121Z,46.70
2019-05-07T10:01:47.080Z,47.00
2019-05-07T10:03:22.818Z,47.10
2019-05-07T10:05:02.057Z,47.20
2019-05-07T10:06:36.806Z,47.40
2019-05-07T10:08:12.997Z,47.40
2019-05-07T10:09:48.833Z,47.70
2019-05-07T10:11:41.498Z,48.00
2019-05-07T10:13:24.709Z,48.50
2019-05-07T10:15:02.898Z,48.40
2019-05-07T10:16:41.747Z,48.20
2019-05-07T10:18:18.064Z,47.90
2019-05-07T10:19:53.601Z,47.90
2019-05-07T10:21:29.133Z,48.00
2019-05-07T10:23:04.775Z,47.90
2019-05-07T10:24:41.912Z,48.10
2019-05-07T10:26:18.456Z,48.30
2019-05-07T10:27:53.993Z,48.50
2019-05-07T10:29:29.558Z,48.40
2019-05-07T10:31:05.086Z,48.50
2019-05-07T10:32:42.183Z,48.50
2019-05-07T10:34:17.939Z,47.90
2019-05-07T10:35:53.474Z,47.80
2019-05-07T10:37:29.017Z,47.80
2019-05-07T10:39:07.156Z,48.00
2019-05-07T10:40:42.808Z,47.80
2019-05-07T10:42:18.411Z,47.50
2019-05-07T10:43:55.356Z,47.00
2019-05-07T10:45:35.900Z,46.60
2019-05-07T10:47:29.395Z,46.50
2019-05-07T10:49:06.628Z,46.50
2019-05-07T10:50:52.718Z,46.30
2019-05-07T10:52:28.244Z,46.00
2019-05-07T10:54:04.030Z,46.00
2019-05-07T10:55:39.560Z,45.70
2019-05-07T10:57:15.086Z,45.50
2019-05-07T10:58:52.179Z,45.40
2019-05-07T11:00:28.448Z,45.40
2019-05-07T11:02:08.278Z,45.50
2019-05-07T11:03:44.246Z,45.90
2019-05-07T11:05:21.824Z,46.10
2019-05-07T11:06:57.069Z,46.70
2019-05-07T11:08:33.069Z,47.30
2019-05-07T11:10:09.642Z,46.40
2019-05-07T11:11:47.272Z,46.30
2019-05-07T11:13:23.061Z,46.30
2019-05-07T11:14:58.671Z,45.70
2019-05-07T11:16:35.999Z,45.40
2019-05-07T11:18:16.741Z,45.50
2019-05-07T11:19:52.758Z,45.80
2019-05-07T11:21:33.367Z,45.80
2019-05-07T11:23:08.489Z,45.70
2019-05-07T11:24:44.087Z,45.60
2019-05-07T11:26:19.628Z,45.60
2019-05-07T11:27:55.229Z,45.40
2019-05-07T11:29:33.042Z,45.50
2019-05-07T11:31:08.613Z,45.50
2019-05-07T11:32:45.374Z,45.60
2019-05-07T11:34:22.062Z,45.60
2019-05-07T11:35:57.725Z,45.50
2019-05-07T11:37:34.498Z,45.30
2019-05-07T11:39:12.142Z,45.30
2019-05-07T11:40:47.523Z,45.60
2019-05-07T11:42:22.807Z,45.70
2019-05-07T11:44:01.778Z,45.70
2019-05-07T11:45:42.125Z,45.60
2019-05-07T11:47:19.292Z,45.60
2019-05-07T11:48:56.472Z,45.70
2019-05-07T11:50:33.637Z,44.80
2019-05-07T11:52:12.290Z,44.70
2019-05-07T11:54:05.759Z,44.60
2019-05-07T11:55:42.060Z,44.90
2019-05-07T11:57:17.717Z,44.80
2019-05-07T11:58:54.840Z,44.00
2019-05-07T12:00:32.501Z,43.60
2019-05-07T12:02:08.011Z,43.10
2019-05-07T12:03:43.606Z,42.80
2019-05-07T12:05:19.484Z,42.90
2019-05-07T12:06:55.003Z,43.00
2019-05-07T12:08:40.936Z,43.00
2019-05-07T12:10:08.281Z,43.50
2019-05-07T12:11:43.865Z,42.70
2019-05-07T12:13:21.852Z,42.00
2019-05-07T12:14:57.448Z,41.70
2019-05-07T12:16:32.983Z,41.50
2019-05-07T12:18:08.513Z,41.30
2019-05-07T12:19:44.103Z,41.00
2019-05-07T12:21:23.616Z,40.90
2019-05-07T12:22:57.566Z,41.00
2019-05-07T12:24:33.078Z,40.90
2019-05-07T12:26:08.629Z,41.00
2019-05-07T12:27:44.450Z,40.70
2019-05-07T12:29:21.955Z,40.40
2019-05-07T12:31:12.150Z,40.50
2019-05-07T12:33:02.263Z,41.00
2019-05-07T12:34:49.460Z,41.40
2019-05-07T12:36:25.013Z,41.30
2019-05-07T12:38:02.139Z,41.30
2019-05-07T12:39:38.139Z,41.10
2019-05-07T12:41:33.870Z,40.80
2019-05-07T12:43:10.576Z,41.10
2019-05-07T12:44:47.754Z,41.00
2019-05-07T12:46:23.322Z,41.00
2019-05-07T12:47:58.862Z,40.70
2019-05-07T12:49:35.865Z,40.50
2019-05-07T12:51:12.587Z,40.10
2019-05-07T12:53:04.456Z,39.70
2019-05-07T12:54:42.053Z,39.50
2019-05-07T12:56:17.716Z,38.80
2019-05-07T12:57:53.256Z,38.10
2019-05-07T12:59:28.774Z,37.80
2019-05-07T13:01:05.930Z,37.50
2019-05-07T13:02:44.297Z,37.40
2019-05-07T13:04:28.703Z,37.00
2019-05-07T13:06:04.551Z,37.00
2019-05-07T13:07:41.689Z,36.80
2019-05-07T13:09:17.154Z,36.80
2019-05-07T13:10:52.682Z,37.00
2019-05-07T13:12:28.204Z,37.10
2019-05-07T13:14:04.495Z,36.70
2019-05-07T13:15:43.250Z,36.10
2019-05-07T13:17:18.305Z,35.90
2019-05-07T13:18:53.827Z,35.50
2019-05-07T13:20:29.494Z,35.00
2019-05-07T13:22:06.093Z,34.60
2019-05-07T13:23:42.181Z,34.60
2019-05-07T13:25:18.882Z,34.40
2019-05-07T13:26:54.401Z,33.90
2019-05-07T13:28:29.937Z,33.60
2019-05-07T13:30:07.970Z,33.70
2019-05-07T13:31:44.411Z,33.20
2019-05-07T13:33:20.133Z,32.80
2019-05-07T13:34:55.625Z,33.20
2019-05-07T13:36:33.131Z,33.40
2019-05-07T13:38:08.420Z,33.40
2019-05-07T13:39:52.016Z,33.60
2019-05-07T13:41:34.917Z,33.30
2019-05-07T13:43:15.013Z,33.00
2019-05-07T13:44:58.959Z,33.10
2019-05-07T13:46:36.247Z,33.30
2019-05-07T13:48:16.874Z,33.50
2019-05-07T13:49:53.946Z,33.60
2019-05-07T13:51:31.683Z,34.00
2019-05-07T13:53:07.758Z,34.50
2019-05-07T13:54:46.019Z,34.80
2019-05-07T13:56:22.576Z,34.10
2019-05-07T13:57:58.113Z,34.10
2019-05-07T13:59:33.680Z,34.50
2019-05-07T14:01:26.911Z,34.80
2019-05-07T14:03:04.083Z,35.30
2019-05-07T14:04:39.613Z,35.00
2019-05-07T14:06:17.217Z,34.30
2019-05-07T14:09:27.911Z,33.80
2019-05-07T14:11:03.436Z,34.50
2019-05-07T14:12:38.941Z,34.30
2019-05-07T14:14:14.468Z,34.60
2019-05-07T14:16:09.005Z,34.50
2019-05-07T14:17:44.543Z,33.90
2019-05-07T14:19:22.166Z,34.20
2019-05-07T14:20:57.299Z,34.30
2019-05-07T14:22:32.857Z,34.30
2019-05-07T14:24:08.396Z,34.30
2019-05-07T14:25:43.903Z,34.30
2019-05-07T14:27:19.443Z,34.20
2019-05-07T14:28:54.983Z,34.40
2019-05-07T14:30:32.321Z,34.00
2019-05-07T14:32:18.454Z,33.90
2019-05-07T14:34:02.891Z,34.20
2019-05-07T14:35:40.401Z,34.30
2019-05-07T14:37:26.596Z,34.40
2019-05-07T14:39:02.535Z,34.00
2019-05-07T14:40:39.346Z,34.00
2019-05-07T14:42:16.506Z,34.00
2019-05-07T14:43:59.695Z,34.00
2019-05-07T14:45:42.161Z,34.30
2019-05-07T14:47:19.324Z,34.60
2019-05-07T14:48:54.883Z,34.80
2019-05-07T14:50:30.414Z,34.70
2019-05-07T14:52:05.938Z,34.70
2019-05-07T14:53:42.067Z,35.30
2019-05-07T14:55:17.667Z,35.30
2019-05-07T14:56:54.865Z,35.40
2019-05-07T14:58:31.874Z,35.70
2019-05-07T15:00:14.140Z,35.60
2019-05-07T15:01:49.732Z,35.60
2019-05-07T15:03:25.725Z,36.10
2019-05-07T15:05:02.798Z,35.30
2019-05-07T15:06:38.651Z,35.30
2019-05-07T15:08:15.234Z,35.40
2019-05-07T15:09:51.912Z,35.60
2019-05-07T15:11:27.730Z,35.60
2019-05-07T15:13:03.284Z,35.60
2019-05-07T15:14:39.648Z,35.60
2019-05-07T15:16:16.857Z,35.70
2019-05-07T15:17:57.251Z,35.60
2019-05-07T15:19:32.757Z,35.40
2019-05-07T15:21:09.937Z,35.30
2019-05-07T15:22:49.976Z,35.50
2019-05-07T15:24:25.072Z,35.50
2019-05-07T15:26:04.265Z,35.50
2019-05-07T15:27:38.481Z,35.10
2019-05-07T15:29:15.075Z,35.00
2019-05-07T15:31:02.954Z,35.00
2019-05-07T15:32:38.982Z,35.00
2019-05-07T15:34:14.555Z,35.00
2019-05-07T15:35:52.065Z,35.00
2019-05-07T15:37:27.368Z,35.20
2019-05-07T15:39:02.980Z,35.40
2019-05-07T15:40:42.318Z,35.40
2019-05-07T15:42:17.957Z,35.40
2019-05-07T15:43:53.478Z,35.30
2019-05-07T15:45:29.099Z,35.40
2019-05-07T15:47:07.210Z,35.30
2019-05-07T15:48:44.327Z,35.10
2019-05-07T15:50:20.344Z,35.00
2019-05-07T15:51:57.513Z,35.10
2019-05-07T15:53:42.598Z,35.30
2019-05-07T15:55:18.113Z,36.30
2019-05-07T15:56:55.260Z,35.70
2019-05-07T15:58:31.169Z,36.70
2019-05-07T16:00:12.369Z,36.90
2019-05-07T16:01:47.993Z,36.80
2019-05-07T16:03:37.288Z,36.90
2019-05-07T16:05:13.545Z,36.80
2019-05-07T16:06:49.074Z,36.60
2019-05-07T16:08:25.784Z,36.40
2019-05-07T16:10:01.554Z,36.30
2019-05-07T16:11:37.084Z,36.50
2019-05-07T16:13:14.248Z,36.50
2019-05-07T16:14:52.293Z,37.50
2019-05-07T16:16:27.319Z,36.80
2019-05-07T16:18:04.475Z,36.70
2019-05-07T16:19:40.018Z,36.80
2019-05-07T16:21:15.545Z,36.80
2019-05-07T16:23:11.362Z,36.90
2019-05-07T16:24:35.726Z,36.40
2019-05-07T16:26:13.031Z,36.90
2019-05-07T16:27:48.637Z,36.90
2019-05-07T16:29:24.155Z,37.00
2019-05-07T16:31:02.501Z,37.20
2019-05-07T16:32:38.131Z,37.10
2019-05-07T16:34:13.750Z,37.30
2019-05-07T16:35:50.366Z,37.40
2019-05-07T16:37:25.875Z,37.40
2019-05-07T16:39:03.546Z,36.60
2019-05-07T16:40:42.705Z,37.80
2019-05-07T16:42:19.238Z,37.00
2019-05-07T16:43:54.754Z,36.90
2019-05-07T16:45:31.254Z,36.90
2019-05-07T16:47:06.902Z,36.80
2019-05-07T16:48:43.868Z,37.10
2019-05-07T16:50:22.450Z,37.20
2019-05-07T16:51:59.032Z,37.30
2019-05-07T16:53:35.366Z,37.50
2019-05-07T16:55:12.326Z,37.50
2019-05-07T16:57:05.543Z,37.40
2019-05-07T16:58:42.928Z,37.40
2019-05-07T17:00:24.551Z,37.50
2019-05-07T17:02:02.688Z,37.80
2019-05-07T17:03:39.912Z,37.90
2019-05-07T17:05:15.856Z,37.80
2019-05-07T17:06:52.199Z,37.90
2019-05-07T17:08:31.914Z,37.90
2019-05-07T17:10:11.664Z,37.90
2019-05-07T17:11:47.957Z,37.90
2019-05-07T17:13:23.708Z,37.90
2019-05-07T17:14:59.285Z,37.80
2019-05-07T17:16:34.841Z,37.70
2019-05-07T17:18:11.807Z,37.90
2019-05-07T17:19:47.338Z,37.90
2019-05-07T17:21:43.111Z,38.00
2019-05-07T17:23:19.737Z,38.10
2019-05-07T17:24:55.332Z,37.90
2019-05-07T17:26:30.882Z,37.80
2019-05-07T17:28:08.793Z,37.90
2019-05-07T17:29:46.716Z,37.90
2019-05-07T17:31:22.864Z,37.90
2019-05-07T17:32:58.753Z,37.70
2019-05-07T17:34:34.601Z,38.20
2019-05-07T17:36:12.110Z,38.10
2019-05-07T17:39:22.732Z,37.80
2019-05-07T17:41:09.892Z,38.10
2019-05-07T17:42:35.629Z,38.50
2019-05-07T17:44:11.904Z,38.50
2019-05-07T17:45:49.188Z,38.30
2019-05-07T17:47:26.784Z,38.30
2019-05-07T17:49:02.644Z,38.00
2019-05-07T17:50:43.819Z,38.30
2019-05-07T17:52:19.405Z,38.40
2019-05-07T17:54:00.009Z,39.20
2019-05-07T17:55:36.462Z,38.70
2019-05-07T17:57:13.491Z,38.80
2019-05-07T17:58:49.503Z,38.80
2019-05-07T18:00:25.176Z,38.70
2019-05-07T18:02:11.464Z,39.30
2019-05-07T18:03:47.374Z,39.30
2019-05-07T18:05:23.421Z,39.20
2019-05-07T18:07:00.478Z,39.30
2019-05-07T18:08:39.253Z,39.30
2019-05-07T18:10:15.319Z,39.30
2019-05-07T18:11:52.152Z,39.90
2019-05-07T18:13:29.209Z,39.40
2019-05-07T18:15:06.753Z,39.80
2019-05-07T18:16:57.923Z,40.00
2019-05-07T18:18:38.508Z,39.90
2019-05-07T18:20:14.599Z,40.60
2019-05-07T18:21:52.341Z,40.60
2019-05-07T18:23:29.206Z,40.80
2019-05-07T18:25:06.398Z,40.80
2019-05-07T18:26:42.760Z,40.80
2019-05-07T18:28:21.545Z,40.90
2019-05-07T18:29:57.137Z,41.20
2019-05-07T18:31:36.136Z,41.40
2019-05-07T18:33:14.000Z,41.50
2019-05-07T18:34:55.015Z,41.70
2019-05-07T18:36:31.643Z,41.80
2019-05-07T18:38:07.252Z,42.80
2019-05-07T18:39:43.100Z,42.20
2019-05-07T18:41:18.679Z,42.30
2019-05-07T18:42:54.218Z,42.50
2019-05-07T18:44:29.687Z,42.60
2019-05-07T18:46:05.232Z,42.80
2019-05-07T18:47:40.849Z,42.80
2019-05-07T18:49:16.363Z,43.00
2019-05-07T18:50:52.242Z,43.20
2019-05-07T18:52:28.028Z,43.30
2019-05-07T18:54:03.557Z,43.60
2019-05-07T18:55:39.066Z,43.80
2019-05-07T18:57:14.600Z,43.80
2019-05-07T18:58:52.077Z,43.90
2019-05-07T19:00:44.583Z,44.10
2019-05-07T19:02:22.532Z,44.40
2019-05-07T19:03:58.326Z,44.60
2019-05-07T19:05:33.828Z,44.80
2019-05-07T19:07:09.394Z,44.70
2019-05-07T19:08:45.143Z,44.90
2019-05-07T19:10:22.121Z,45.00
2019-05-07T19:11:57.668Z,45.20
2019-05-07T19:13:33.246Z,45.60
2019-05-07T19:15:12.319Z,45.60
2019-05-07T19:16:48.106Z,45.80
2019-05-07T19:18:23.605Z,45.80
2019-05-07T19:20:00.122Z,46.00
2019-05-07T19:21:35.723Z,46.70
2019-05-07T19:23:11.263Z,45.90
2019-05-07T19:24:48.167Z,46.50
2019-05-07T19:26:24.012Z,45.80
2019-05-07T19:28:01.874Z,45.90
2019-05-07T19:29:37.182Z,46.00
2019-05-07T19:31:13.006Z,46.10
2019-05-07T19:32:53.220Z,46.20
2019-05-07T19:34:32.358Z,46.30
2019-05-07T19:36:07.596Z,46.50
2019-05-07T19:37:43.366Z,46.60
2019-05-07T19:39:18.980Z,46.80
2019-05-07T19:40:54.505Z,46.90
2019-05-07T19:42:31.859Z,47.00
2019-05-07T19:44:07.342Z,47.00
2019-05-07T19:45:45.589Z,47.00
2019-05-07T19:47:23.168Z,47.10
2019-05-07T19:48:58.343Z,47.70
2019-05-07T19:50:33.886Z,47.30
2019-05-07T19:52:09.395Z,47.40
2019-05-07T19:53:44.968Z,46.90
2019-05-07T19:55:22.007Z,47.50
2019-05-07T19:56:57.654Z,48.30
2019-05-07T19:58:33.879Z,47.70
2019-05-07T20:00:12.022Z,48.00
2019-05-07T20:01:49.087Z,47.50
2019-05-07T20:03:25.630Z,48.20
2019-05-07T20:05:03.586Z,48.40
2019-05-07T20:06:38.651Z,48.60
2019-05-07T20:08:14.189Z,48.50
2019-05-07T20:09:49.728Z,48.40
2019-05-07T20:11:26.379Z,48.60
2019-05-07T20:13:05.442Z,48.70
2019-05-07T20:14:42.995Z,48.20
2019-05-07T20:16:25.385Z,48.60
2019-05-07T20:18:03.206Z,48.10
2019-05-07T20:19:38.873Z,48.90
2019-05-07T20:21:14.489Z,48.40
2019-05-07T20:22:52.782Z,48.40
2019-05-07T20:24:36.135Z,48.80
2019-05-07T20:26:13.516Z,48.30
2019-05-07T20:27:53.189Z,49.10
2019-05-07T20:29:32.351Z,49.20
2019-05-07T20:31:08.324Z,49.00
2019-05-07T20:32:46.662Z,49.20
2019-05-07T20:34:28.069Z,49.40
2019-05-07T20:36:08.435Z,49.40
2019-05-07T20:37:49.208Z,49.20
2019-05-07T20:39:26.537Z,49.80
2019-05-07T20:41:03.995Z,49.10
2019-05-07T20:42:42.850Z,49.40
2019-05-07T20:44:19.547Z,49.90
2019-05-07T20:45:55.044Z,50.10
2019-05-07T20:47:32.498Z,49.40
2019-05-07T20:49:08.297Z,50.00
2019-05-07T20:50:43.831Z,49.30
2019-05-07T20:52:19.350Z,50.00
2019-05-07T20:53:56.571Z,50.10
2019-05-07T20:55:38.705Z,50.20
2019-05-07T20:57:22.524Z,49.70
2019-05-07T20:59:18.957Z,50.00
2019-05-07T21:01:02.804Z,50.40
2019-05-07T21:05:27.533Z,50.10
2019-05-07T21:06:12.418Z,50.50
2019-05-07T21:10:04.296Z,50.30